sensor_id;sensor_type;location;lat;lon;timestamp;temperature;humidity
13854;DHT22;6997;51.782;8.824;2023-02-11T00:01:31;5.70;99.90
13854;DHT22;6997;51.782;8.824;2023-02-11T00:06:25;5.70;99.90
13854;DHT22;6997;51.782;8.824;2023-02-11T00:08:52;5.70;99.90
13854;DHT22;6997;51.782;8.824;2023-02-11T00:13:45;5.60;99.90
13854;DHT22;6997;51.782;8.824;2023-02-11T00:25:57;5.70;99.90
13854;DHT22;6997;51.782;8.824;2023-02-11T00:33:21;5.80;99.90
13854;DHT22;6997;51.782;8.824;2023-02-11T00:38:13;5.80;99.90
13854;DHT22;6997;51.782;8.824;2023-02-11T00:43:04;5.70;99.90
13854;DHT22;6997;51.782;8.824;2023-02-11T00:47:56;5.60;99.90
13854;DHT22;6997;51.782;8.824;2023-02-11T00:52:48;5.70;99.90
13854;DHT22;6997;51.782;8.824;2023-02-11T01:00:06;5.50;99.90
13854;DHT22;6997;51.782;8.824;2023-02-11T01:02:32;5.60;99.90
13854;DHT22;6997;51.782;8.824;2023-02-11T01:07:25;5.50;99.90
13854;DHT22;6997;51.782;8.824;2023-02-11T01:09:51;5.50;99.90
13854;DHT22;6997;51.782;8.824;2023-02-11T01:14:42;5.50;99.90
13854;DHT22;6997;51.782;8.824;2023-02-11T01:17:08;5.50;99.90
13854;DHT22;6997;51.782;8.824;2023-02-11T01:19:35;5.50;99.90
13854;DHT22;6997;51.782;8.824;2023-02-11T01:22:01;5.40;99.90
13854;DHT22;6997;51.782;8.824;2023-02-11T01:26:52;5.30;99.90
13854;DHT22;6997;51.782;8.824;2023-02-11T01:31:44;5.30;99.90
13854;DHT22;6997;51.782;8.824;2023-02-11T01:34:10;5.20;99.90
13854;DHT22;6997;51.782;8.824;2023-02-11T01:39:01;5.20;99.90
13854;DHT22;6997;51.782;8.824;2023-02-11T01:41:28;5.20;99.90
13854;DHT22;6997;51.782;8.824;2023-02-11T01:51:27;5.00;99.90
13854;DHT22;6997;51.782;8.824;2023-02-11T01:53:55;5.10;99.90
13854;DHT22;6997;51.782;8.824;2023-02-11T01:56:44;5.10;99.90
13854;DHT22;6997;51.782;8.824;2023-02-11T02:04:43;5.00;99.90
13854;DHT22;6997;51.782;8.824;2023-02-11T02:09:54;5.00;99.90
13854;DHT22;6997;51.782;8.824;2023-02-11T02:30:32;4.90;99.90
13854;DHT22;6997;51.782;8.824;2023-02-11T02:33:23;4.90;99.90
13854;DHT22;6997;51.782;8.824;2023-02-11T02:46:22;4.90;99.90
13854;DHT22;6997;51.782;8.824;2023-02-11T03:17:15;4.80;99.90
13854;DHT22;6997;51.782;8.824;2023-02-11T03:22:24;4.80;99.90
13854;DHT22;6997;51.782;8.824;2023-02-11T03:27:40;4.70;99.90
13854;DHT22;6997;51.782;8.824;2023-02-11T03:35:28;4.80;99.90
13854;DHT22;6997;51.782;8.824;2023-02-11T03:40:30;4.80;99.90
13854;DHT22;6997;51.782;8.824;2023-02-11T03:57:50;4.80;99.90
13854;DHT22;6997;51.782;8.824;2023-02-11T04:12:28;4.70;99.90
13854;DHT22;6997;51.782;8.824;2023-02-11T04:22:11;4.60;99.90
13854;DHT22;6997;51.782;8.824;2023-02-11T04:24:37;4.60;99.90
13854;DHT22;6997;51.782;8.824;2023-02-11T04:29:28;4.70;99.90
13854;DHT22;6997;51.782;8.824;2023-02-11T04:36:46;4.80;99.90
13854;DHT22;6997;51.782;8.824;2023-02-11T04:44:04;4.80;99.90
13854;DHT22;6997;51.782;8.824;2023-02-11T04:53:48;4.80;99.90
13854;DHT22;6997;51.782;8.824;2023-02-11T04:56:14;4.80;99.90
13854;DHT22;6997;51.782;8.824;2023-02-11T04:58:39;4.80;99.90
13854;DHT22;6997;51.782;8.824;2023-02-11T05:01:09;4.90;99.90
13854;DHT22;6997;51.782;8.824;2023-02-11T05:03:36;4.90;99.90
13854;DHT22;6997;51.782;8.824;2023-02-11T05:06:02;4.80;99.90
13854;DHT22;6997;51.782;8.824;2023-02-11T05:08:28;4.80;99.90
13854;DHT22;6997;51.782;8.824;2023-02-11T05:13:19;4.80;99.90
13854;DHT22;6997;51.782;8.824;2023-02-11T05:23:05;4.90;99.90
13854;DHT22;6997;51.782;8.824;2023-02-11T05:27:56;4.90;99.90
13854;DHT22;6997;51.782;8.824;2023-02-11T05:32:48;4.90;99.90
13854;DHT22;6997;51.782;8.824;2023-02-11T05:42:31;5.00;99.90
13854;DHT22;6997;51.782;8.824;2023-02-11T05:52:15;5.00;99.90
13854;DHT22;6997;51.782;8.824;2023-02-11T05:59:32;5.00;99.90
13854;DHT22;6997;51.782;8.824;2023-02-11T06:01:58;5.00;99.90
13854;DHT22;6997;51.782;8.824;2023-02-11T06:06:49;5.10;99.90
13854;DHT22;6997;51.782;8.824;2023-02-11T06:11:41;5.00;99.90
13854;DHT22;6997;51.782;8.824;2023-02-11T06:16:32;5.00;99.90
13854;DHT22;6997;51.782;8.824;2023-02-11T06:23:50;5.00;99.90
13854;DHT22;6997;51.782;8.824;2023-02-11T06:31:08;5.00;99.90
13854;DHT22;6997;51.782;8.824;2023-02-11T06:33:35;5.00;99.90
13854;DHT22;6997;51.782;8.824;2023-02-11T06:36:01;5.00;99.90
13854;DHT22;6997;51.782;8.824;2023-02-11T06:38:27;5.00;99.90
13854;DHT22;6997;51.782;8.824;2023-02-11T06:40:52;5.00;99.90
13854;DHT22;6997;51.782;8.824;2023-02-11T06:45:44;5.00;99.90
13854;DHT22;6997;51.782;8.824;2023-02-11T06:50:35;5.00;99.90
13854;DHT22;6997;51.782;8.824;2023-02-11T07:05:11;5.00;99.90
13854;DHT22;6997;51.782;8.824;2023-02-11T07:10:05;4.90;99.90
13854;DHT22;6997;51.782;8.824;2023-02-11T07:12:33;4.90;99.90
13854;DHT22;6997;51.782;8.824;2023-02-11T07:15:00;4.90;99.90
13854;DHT22;6997;51.782;8.824;2023-02-11T07:19:52;5.00;99.90
13854;DHT22;6997;51.782;8.824;2023-02-11T07:22:18;5.00;99.90
13854;DHT22;6997;51.782;8.824;2023-02-11T07:24:44;4.90;99.90
13854;DHT22;6997;51.782;8.824;2023-02-11T07:29:37;5.00;99.90
13854;DHT22;6997;51.782;8.824;2023-02-11T07:36:57;4.90;99.90
13854;DHT22;6997;51.782;8.824;2023-02-11T07:41:52;4.90;99.90
13854;DHT22;6997;51.782;8.824;2023-02-11T07:46:44;5.00;99.90
13854;DHT22;6997;51.782;8.824;2023-02-11T07:51:37;5.00;99.90
13854;DHT22;6997;51.782;8.824;2023-02-11T07:56:30;4.80;99.90
13854;DHT22;6997;51.782;8.824;2023-02-11T07:58:59;5.00;99.90
13854;DHT22;6997;51.782;8.824;2023-02-11T08:01:26;5.00;99.90
13854;DHT22;6997;51.782;8.824;2023-02-11T08:06:21;5.00;99.90
13854;DHT22;6997;51.782;8.824;2023-02-11T08:08:47;5.00;99.90
13854;DHT22;6997;51.782;8.824;2023-02-11T08:11:17;5.00;99.90
13854;DHT22;6997;51.782;8.824;2023-02-11T08:16:24;5.00;99.90
13854;DHT22;6997;51.782;8.824;2023-02-11T08:36:01;5.00;99.90
13854;DHT22;6997;51.782;8.824;2023-02-11T08:43:24;5.10;99.90
13854;DHT22;6997;51.782;8.824;2023-02-11T08:48:16;5.10;99.90
13854;DHT22;6997;51.782;8.824;2023-02-11T08:55:33;5.20;99.90
13854;DHT22;6997;51.782;8.824;2023-02-11T08:57:58;5.20;99.90
13854;DHT22;6997;51.782;8.824;2023-02-11T09:02:50;5.20;99.90
13854;DHT22;6997;51.782;8.824;2023-02-11T09:05:16;5.10;99.90
13854;DHT22;6997;51.782;8.824;2023-02-11T09:10:08;5.20;99.90
13854;DHT22;6997;51.782;8.824;2023-02-11T09:12:33;5.10;99.90
13854;DHT22;6997;51.782;8.824;2023-02-11T09:19:51;5.20;99.90
13854;DHT22;6997;51.782;8.824;2023-02-11T09:24:42;5.10;99.90
13854;DHT22;6997;51.782;8.824;2023-02-11T09:27:08;5.30;99.90
13854;DHT22;6997;51.782;8.824;2023-02-11T09:29:33;5.20;99.90
13854;DHT22;6997;51.782;8.824;2023-02-11T09:34:25;5.20;99.90
13854;DHT22;6997;51.782;8.824;2023-02-11T09:39:18;5.20;99.90
13854;DHT22;6997;51.782;8.824;2023-02-11T09:52:05;5.40;99.90
13854;DHT22;6997;51.782;8.824;2023-02-11T09:57:11;5.40;99.90
13854;DHT22;6997;51.782;8.824;2023-02-11T09:59:37;5.40;99.90
13854;DHT22;6997;51.782;8.824;2023-02-11T10:04:48;5.50;99.90
13854;DHT22;6997;51.782;8.824;2023-02-11T10:20:20;5.60;99.90
13854;DHT22;6997;51.782;8.824;2023-02-11T10:22:53;5.60;99.90
13854;DHT22;6997;51.782;8.824;2023-02-11T10:30:37;5.60;99.90
13854;DHT22;6997;51.782;8.824;2023-02-11T10:38:07;5.70;99.90
13854;DHT22;6997;51.782;8.824;2023-02-11T10:58:03;5.80;99.90
13854;DHT22;6997;51.782;8.824;2023-02-11T11:00:38;5.80;99.90
13854;DHT22;6997;51.782;8.824;2023-02-11T11:06:02;5.70;99.90
13854;DHT22;6997;51.782;8.824;2023-02-11T11:11:11;5.70;99.90
13854;DHT22;6997;51.782;8.824;2023-02-11T11:18:37;5.70;99.90
13854;DHT22;6997;51.782;8.824;2023-02-11T11:23:34;5.70;99.90
13854;DHT22;6997;51.782;8.824;2023-02-11T11:46:29;5.80;99.90
13854;DHT22;6997;51.782;8.824;2023-02-11T11:49:03;5.80;99.90
13854;DHT22;6997;51.782;8.824;2023-02-11T11:59:00;5.80;99.90
13854;DHT22;6997;51.782;8.824;2023-02-11T12:04:18;5.90;99.90
13854;DHT22;6997;51.782;8.824;2023-02-11T12:06:59;5.90;99.90
13854;DHT22;6997;51.782;8.824;2023-02-11T12:22:53;6.00;99.90
13854;DHT22;6997;51.782;8.824;2023-02-11T12:50:34;6.10;99.90
13854;DHT22;6997;51.782;8.824;2023-02-11T12:55:40;6.20;99.90
13854;DHT22;6997;51.782;8.824;2023-02-11T13:00:57;6.30;99.90
13854;DHT22;6997;51.782;8.824;2023-02-11T13:21:45;6.40;99.90
13854;DHT22;6997;51.782;8.824;2023-02-11T13:24:43;6.50;99.90
13854;DHT22;6997;51.782;8.824;2023-02-11T13:27:31;6.50;99.90
13854;DHT22;6997;51.782;8.824;2023-02-11T13:30:21;6.60;99.90
13854;DHT22;6997;51.782;8.824;2023-02-11T13:45:31;6.60;99.90
13854;DHT22;6997;51.782;8.824;2023-02-11T13:48:06;6.60;99.90
13854;DHT22;6997;51.782;8.824;2023-02-11T14:19:37;6.80;99.90
13854;DHT22;6997;51.782;8.824;2023-02-11T14:47:44;6.80;99.90
13854;DHT22;6997;51.782;8.824;2023-02-11T14:52:43;6.20;99.90
13854;DHT22;6997;51.782;8.824;2023-02-11T14:55:51;6.80;99.90
13854;DHT22;6997;51.782;8.824;2023-02-11T15:03:31;6.90;99.90
13854;DHT22;6997;51.782;8.824;2023-02-11T15:08:29;6.90;99.90
13854;DHT22;6997;51.782;8.824;2023-02-11T15:10:55;6.80;99.90
13854;DHT22;6997;51.782;8.824;2023-02-11T15:13:23;6.80;99.90
13854;DHT22;6997;51.782;8.824;2023-02-11T15:18:22;6.80;99.90
13854;DHT22;6997;51.782;8.824;2023-02-11T15:23:24;6.80;99.90
13854;DHT22;6997;51.782;8.824;2023-02-11T15:25:51;6.80;99.90
13854;DHT22;6997;51.782;8.824;2023-02-11T15:28:26;6.80;99.90
13854;DHT22;6997;51.782;8.824;2023-02-11T15:36:10;6.80;99.90
13854;DHT22;6997;51.782;8.824;2023-02-11T15:38:36;6.90;99.90
13854;DHT22;6997;51.782;8.824;2023-02-11T15:41:03;6.90;99.90
13854;DHT22;6997;51.782;8.824;2023-02-11T15:43:48;6.90;99.90
13854;DHT22;6997;51.782;8.824;2023-02-11T15:48:49;6.90;99.90
13854;DHT22;6997;51.782;8.824;2023-02-11T16:01:34;6.90;99.90
13854;DHT22;6997;51.782;8.824;2023-02-11T16:04:02;6.90;99.90
13854;DHT22;6997;51.782;8.824;2023-02-11T16:06:41;6.90;99.90
13854;DHT22;6997;51.782;8.824;2023-02-11T16:16:51;7.00;99.90
13854;DHT22;6997;51.782;8.824;2023-02-11T16:21:45;6.90;99.90
13854;DHT22;6997;51.782;8.824;2023-02-11T16:26:48;6.80;99.90
13854;DHT22;6997;51.782;8.824;2023-02-11T16:29:16;6.80;99.90
13854;DHT22;6997;51.782;8.824;2023-02-11T16:31:47;6.80;99.90
13854;DHT22;6997;51.782;8.824;2023-02-11T16:39:09;6.80;99.90
13854;DHT22;6997;51.782;8.824;2023-02-11T16:44:01;6.80;99.90
13854;DHT22;6997;51.782;8.824;2023-02-11T16:48:54;6.80;99.90
13854;DHT22;6997;51.782;8.824;2023-02-11T16:51:21;6.80;99.90
13854;DHT22;6997;51.782;8.824;2023-02-11T17:03:34;6.70;99.90
13854;DHT22;6997;51.782;8.824;2023-02-11T17:06:11;6.70;99.90
13854;DHT22;6997;51.782;8.824;2023-02-11T17:11:04;6.60;99.90
13854;DHT22;6997;51.782;8.824;2023-02-11T17:15:56;6.70;99.90
13854;DHT22;6997;51.782;8.824;2023-02-11T17:20:48;9.70;99.90
13854;DHT22;6997;51.782;8.824;2023-02-11T17:28:07;6.70;99.90
13854;DHT22;6997;51.782;8.824;2023-02-11T17:35:25;6.70;99.90
13854;DHT22;6997;51.782;8.824;2023-02-11T17:37:51;6.70;99.90
13854;DHT22;6997;51.782;8.824;2023-02-11T17:42:44;6.80;99.90
13854;DHT22;6997;51.782;8.824;2023-02-11T17:45:09;6.70;99.90
13854;DHT22;6997;51.782;8.824;2023-02-11T17:47:35;6.70;99.90
13854;DHT22;6997;51.782;8.824;2023-02-11T17:50:01;6.70;99.90
13854;DHT22;6997;51.782;8.824;2023-02-11T17:54:54;6.80;99.90
13854;DHT22;6997;51.782;8.824;2023-02-11T17:57:20;6.80;99.90
13854;DHT22;6997;51.782;8.824;2023-02-11T17:59:46;6.70;99.90
13854;DHT22;6997;51.782;8.824;2023-02-11T18:04:38;6.80;99.90
13854;DHT22;6997;51.782;8.824;2023-02-11T18:07:04;6.80;99.90
13854;DHT22;6997;51.782;8.824;2023-02-11T18:11:56;6.80;99.90
13854;DHT22;6997;51.782;8.824;2023-02-11T18:14:22;6.80;99.90
13854;DHT22;6997;51.782;8.824;2023-02-11T18:19:15;6.80;99.90
13854;DHT22;6997;51.782;8.824;2023-02-11T18:24:07;6.80;99.90
13854;DHT22;6997;51.782;8.824;2023-02-11T18:33:51;6.80;99.90
13854;DHT22;6997;51.782;8.824;2023-02-11T18:38:44;6.80;99.90
13854;DHT22;6997;51.782;8.824;2023-02-11T18:41:10;6.80;99.90
13854;DHT22;6997;51.782;8.824;2023-02-11T18:43:36;6.70;99.90
13854;DHT22;6997;51.782;8.824;2023-02-11T18:46:06;6.70;99.90
13854;DHT22;6997;51.782;8.824;2023-02-11T18:48:33;6.70;99.90
13854;DHT22;6997;51.782;8.824;2023-02-11T18:53:24;6.80;99.90
13854;DHT22;6997;51.782;8.824;2023-02-11T18:55:51;6.80;99.90
13854;DHT22;6997;51.782;8.824;2023-02-11T18:58:17;6.80;99.90
13854;DHT22;6997;51.782;8.824;2023-02-11T19:05:44;6.90;99.90
13854;DHT22;6997;51.782;8.824;2023-02-11T19:13:07;6.80;99.90
13854;DHT22;6997;51.782;8.824;2023-02-11T19:17:58;6.80;99.90
13854;DHT22;6997;51.782;8.824;2023-02-11T19:22:50;6.80;99.90
13854;DHT22;6997;51.782;8.824;2023-02-11T19:27:41;6.70;99.90
13854;DHT22;6997;51.782;8.824;2023-02-11T19:42:18;6.80;99.90
13854;DHT22;6997;51.782;8.824;2023-02-11T19:49:36;6.70;99.90
13854;DHT22;6997;51.782;8.824;2023-02-11T19:54:28;6.70;99.90
13854;DHT22;6997;51.782;8.824;2023-02-11T19:56:54;6.70;99.90
13854;DHT22;6997;51.782;8.824;2023-02-11T19:59:20;6.70;99.90
13854;DHT22;6997;51.782;8.824;2023-02-11T20:01:46;6.60;99.90
13854;DHT22;6997;51.782;8.824;2023-02-11T20:04:14;6.70;99.90
13854;DHT22;6997;51.782;8.824;2023-02-11T20:09:09;6.80;99.90
13854;DHT22;6997;51.782;8.824;2023-02-11T20:11:36;6.80;99.90
13854;DHT22;6997;51.782;8.824;2023-02-11T20:14:02;6.70;99.90
13854;DHT22;6997;51.782;8.824;2023-02-11T20:16:29;6.80;99.90
13854;DHT22;6997;51.782;8.824;2023-02-11T20:18:55;6.70;99.90
13854;DHT22;6997;51.782;8.824;2023-02-11T20:23:49;6.80;99.90
13854;DHT22;6997;51.782;8.824;2023-02-11T20:28:46;6.80;99.90
13854;DHT22;6997;51.782;8.824;2023-02-11T20:36:14;6.70;99.90
13854;DHT22;6997;51.782;8.824;2023-02-11T20:38:40;6.50;99.90
13854;DHT22;6997;51.782;8.824;2023-02-11T20:41:12;6.70;99.90
13854;DHT22;6997;51.782;8.824;2023-02-11T20:51:05;6.70;99.90
13854;DHT22;6997;51.782;8.824;2023-02-11T20:53:37;6.60;99.90
13854;DHT22;6997;51.782;8.824;2023-02-11T20:56:05;6.60;99.90
13854;DHT22;6997;51.782;8.824;2023-02-11T20:58:31;6.60;99.90
13854;DHT22;6997;51.782;8.824;2023-02-11T21:01:16;6.60;99.90
13854;DHT22;6997;51.782;8.824;2023-02-11T21:03:44;6.50;99.90
13854;DHT22;6997;51.782;8.824;2023-02-11T21:06:13;6.60;99.90
13854;DHT22;6997;51.782;8.824;2023-02-11T21:13:37;6.60;99.90
13854;DHT22;6997;51.782;8.824;2023-02-11T21:28:15;6.60;99.90
13854;DHT22;6997;51.782;8.824;2023-02-11T21:35:34;6.60;99.90
13854;DHT22;6997;51.782;8.824;2023-02-11T21:40:26;6.50;99.90
13854;DHT22;6997;51.782;8.824;2023-02-11T21:45:19;6.60;99.90
13854;DHT22;6997;51.782;8.824;2023-02-11T21:47:45;6.50;99.90
13854;DHT22;6997;51.782;8.824;2023-02-11T21:52:36;6.50;99.90
13854;DHT22;6997;51.782;8.824;2023-02-11T21:55:02;6.50;99.90
13854;DHT22;6997;51.782;8.824;2023-02-11T21:57:27;6.60;99.90
13854;DHT22;6997;51.782;8.824;2023-02-11T22:09:38;6.60;99.90
13854;DHT22;6997;51.782;8.824;2023-02-11T22:12:04;6.60;99.90
13854;DHT22;6997;51.782;8.824;2023-02-11T22:14:30;6.70;99.90
13854;DHT22;6997;51.782;8.824;2023-02-11T22:16:55;6.50;99.90
13854;DHT22;6997;51.782;8.824;2023-02-11T22:19:21;6.40;99.90
13854;DHT22;6997;51.782;8.824;2023-02-11T22:21:48;6.50;99.90
13854;DHT22;6997;51.782;8.824;2023-02-11T22:26:40;6.60;99.90
13854;DHT22;6997;51.782;8.824;2023-02-11T22:31:33;6.60;99.90
13854;DHT22;6997;51.782;8.824;2023-02-11T22:41:19;6.60;99.90
13854;DHT22;6997;51.782;8.824;2023-02-11T22:43:45;6.60;99.90
13854;DHT22;6997;51.782;8.824;2023-02-11T22:58:35;6.60;99.90
13854;DHT22;6997;51.782;8.824;2023-02-11T23:05:53;6.60;99.90
13854;DHT22;6997;51.782;8.824;2023-02-11T23:10:45;6.60;99.90
13854;DHT22;6997;51.782;8.824;2023-02-11T23:15:41;6.60;99.90
13854;DHT22;6997;51.782;8.824;2023-02-11T23:23:04;6.50;99.90
13854;DHT22;6997;51.782;8.824;2023-02-11T23:40:12;6.60;99.90
13854;DHT22;6997;51.782;8.824;2023-02-11T23:45:04;6.60;99.90
13854;DHT22;6997;51.782;8.824;2023-02-11T23:47:31;6.60;99.90
13854;DHT22;6997;51.782;8.824;2023-02-11T23:49:56;6.60;99.90
13854;DHT22;6997;51.782;8.824;2023-02-11T23:54:48;6.60;99.90
13854;DHT22;6997;51.782;8.824;2023-02-11T23:57:14;6.50;99.90
13854;DHT22;6997;51.782;8.824;2023-02-11T23:59:39;6.60;99.90
